Legend :    VFR   Marginal VFR   IFR   Intensive IFR   Very Intensive IFR
Visi :
Ceiling :
>= 8 km
>= 3000ft
5 to 8 km
1000 to 3000 ft
1500m to 5 km
500 to 1000 ft
800 to 1500m
200 to 500 ft
< 800m
< 200 ft
Symbols :   Thunderstorms  Fog  Heavy snow  Heavy precipitations  Wind > 20 kt
SIGMETs :     Misc.  Thunderstorms  Icing  Turbulence  Mountain Waves  Volcanic Ashes







- Airport Elevation : 876 ft
- IATA code : MBX


LJMB - Maribor

CURRENT METAR :
  • 100830Z 22003KT 9999 FEW040 BKN087 05/02 Q1012 R99/CLRD//

EXPIRED METARs :
  • 100800Z VRB01KT 9999 FEW040 BKN087 04/02 Q1012 R32/CLRD//
  • 100730Z 13003KT 9999 FEW040 BKN070 02/M01 Q1012
  • 100700Z 00000KT 9999 FEW040 BKN070 02/M01 Q1012
  • 100630Z 34004KT CAVOK 01/M00 Q1011
  • 100600Z VRB02KT CAVOK 01/M01 Q1011

TAF TAF LJMB
Valid from the 10 at 09:00 until the 11 at 09:00 UTC


100800Z 1009/1109 13003KT 9999 FEW040 BKN070
TEMPO 1009/1018 32008KT FEW050
PROB30
TEMPO 1009/1018 -SHRA
TEMPO 1017/1106 FEW070
No reported NOTAMs for that airfield.


LOGIN :  

Disclaimer |     EN      FR      IT 



MET'MAP, your aeronautical weather chart ! - Copyright ORBIFLY December 2007 - Disclaimer


ORBIFLY MET'MAP TEAM :

Programming & Development : Alexandra Zaïnal
Concept & Development : Baudouin d'Aumeries
Co-Development & Prog : Marc-Olivier Méhu
Technical & hardware support : Manuel Goepfert

Contact : metmap@orbifly.com




SOURCES & CREDITS :

   NOAA